Time;durP1;ratioP1;P1;durP2;ratioP2;P2;SDS_P1;SDS_P2;PMS_P1;PMS_P2;Temp;Humidity;BMP_temperature;BMP_pressure;BME280_temperature;BME280_humidity;BME280_pressure;Samples;Min_cycle;Max_cycle;Signal;HPM_P1;HPM_P2
2021/12/13 00:00:20;;;;;;;2.95;1.20;;;11.80;66.70;;;;;;6114058;23;20680;-53
2021/12/13 00:02:53;;;;;;;2.47;1.63;;;11.80;66.80;;;;;;6121971;23;20053;-53
2021/12/13 00:05:34;;;;;;;3.75;1.40;;;11.80;66.70;;;;;;6114915;23;20014;-54
2021/12/13 00:08:06;;;;;;;4.68;1.30;;;11.90;66.70;;;;;;6114806;23;20041;-53
2021/12/13 00:10:43;;;;;;;1.73;1.20;;;11.90;66.80;;;;;;6114789;23;20005;-51
2021/12/13 00:13:23;;;;;;;2.85;1.25;;;11.90;66.70;;;;;;6125072;23;20013;-53
2021/12/13 00:16:00;;;;;;;3.08;1.40;;;11.90;67.40;;;;;;6113949;23;20041;-54
2021/12/13 00:18:31;;;;;;;2.30;1.40;;;11.90;66.70;;;;;;6120727;23;20021;-53
2021/12/13 00:21:07;;;;;;;1.42;1.23;;;11.90;66.60;;;;;;6113008;23;20001;-54
2021/12/13 00:23:48;;;;;;;2.53;1.67;;;11.90;66.60;;;;;;6115723;23;20014;-55
2021/12/13 00:26:35;;;;;;;2.75;1.77;;;11.90;66.60;;;;;;6113267;23;20014;-53
2021/12/13 00:29:16;;;;;;;2.33;1.67;;;11.90;66.50;;;;;;6124211;23;20002;-54
2021/12/13 00:31:59;;;;;;;6.63;1.63;;;11.90;66.40;;;;;;6122312;23;20006;-54
2021/12/13 00:34:42;;;;;;;2.03;1.52;;;11.90;66.40;;;;;;6124924;23;20051;-57
2021/12/13 00:37:30;;;;;;;1.70;1.60;;;11.90;66.30;;;;;;6126924;23;20316;-53
2021/12/13 00:40:22;;;;;;;1.83;1.30;;;11.90;66.40;;;;;;6125085;23;20006;-54
2021/12/13 00:43:08;;;;;;;1.70;1.23;;;11.90;66.30;;;;;;6125205;23;20336;-49
2021/12/13 00:45:39;;;;;;;1.65;1.10;;;11.90;66.30;;;;;;6126258;23;20010;-55
2021/12/13 00:48:07;;;;;;;2.38;1.17;;;11.90;66.30;;;;;;6137955;23;19998;-54
2021/12/13 00:50:39;;;;;;;2.13;1.02;;;11.90;66.20;;;;;;6117591;23;20482;-52
2021/12/13 00:53:06;;;;;;;2.05;1.00;;;11.90;66.20;;;;;;6127194;23;20001;-52
2021/12/13 00:55:35;;;;;;;1.13;1.00;;;11.90;66.20;;;;;;6116436;23;20006;-53
2021/12/13 00:58:20;;;;;;;1.00;0.90;;;11.90;66.20;;;;;;6117161;23;20017;-52
2021/12/13 01:00:52;;;;;;;;;;;11.90;66.20;;;;;;6124055;23;20009;-51
2021/12/13 01:03:27;;;;;;;1.15;0.73;;;11.90;66.20;;;;;;6115625;23;19908;-54
2021/12/13 01:06:31;;;;;;;5.78;0.90;;;11.90;65.90;;;;;;6114816;23;20006;-54
2021/12/13 01:09:35;;;;;;;1.40;0.95;;;11.90;65.90;;;;;;6115951;23;20204;-52
2021/12/13 01:12:06;;;;;;;5.45;1.00;;;11.90;65.90;;;;;;6116814;23;20034;-52
2021/12/13 01:14:46;;;;;;;1.02;0.75;;;11.90;65.90;;;;;;6127007;23;19994;-55
2021/12/13 01:17:36;;;;;;;1.40;0.80;;;11.90;66.00;;;;;;6114015;23;20021;-55
2021/12/13 01:20:24;;;;;;;2.28;0.90;;;11.90;66.00;;;;;;6114572;23;20010;-55
2021/12/13 01:23:02;;;;;;;4.93;0.88;;;11.90;66.00;;;;;;6125926;23;20312;-54
2021/12/13 01:28:22;;;;;;;1.40;0.70;;;11.90;66.00;;;;;;6124827;23;20032;-55
2021/12/13 01:30:56;;;;;;;1.55;0.70;;;11.90;66.00;;;;;;6115346;23;19998;-56
2021/12/13 01:33:25;;;;;;;;;;;11.90;66.00;;;;;;6116478;23;20009;-57
2021/12/13 01:35:54;;;;;;;0.82;0.65;;;11.90;66.00;;;;;;6117544;23;19901;-51
2021/12/13 01:38:35;;;;;;;1.80;0.77;;;11.90;65.90;;;;;;6115901;23;20331;-57
2021/12/13 01:41:08;;;;;;;2.85;1.40;;;11.90;65.80;;;;;;6124461;23;20006;-53
2021/12/13 01:43:37;;;;;;;2.15;1.67;;;11.90;65.90;;;;;;6116977;23;20009;-55
2021/12/13 01:46:04;;;;;;;3.72;1.92;;;11.90;65.90;;;;;;6114980;23;20017;-52
2021/12/13 01:48:35;;;;;;;3.05;2.00;;;11.90;65.90;;;;;;6113743;23;20231;-52
2021/12/13 01:51:07;;;;;;;3.03;2.00;;;11.90;65.90;;;;;;6122936;23;20459;-54
2021/12/13 01:54:17;;;;;;;3.35;2.22;;;11.90;65.90;;;;;;6117172;23;20006;-53
2021/12/13 01:57:09;;;;;;;5.60;2.20;;;11.80;65.80;;;;;;6108184;23;19998;-54
2021/12/13 01:59:52;;;;;;;3.38;2.13;;;11.90;65.80;;;;;;6115525;23;20002;-55
2021/12/13 02:02:38;;;;;;;3.47;2.28;;;11.90;65.60;;;;;;6112308;23;20002;-55
2021/12/13 02:05:09;;;;;;;3.53;2.13;;;11.80;65.50;;;;;;6126893;23;20443;-55
2021/12/13 02:07:48;;;;;;;2.83;2.05;;;11.80;65.50;;;;;;6116360;23;20005;-56
2021/12/13 02:10:27;;;;;;;5.03;1.90;;;11.80;65.50;;;;;;6115491;23;20009;-55
2021/12/13 02:13:10;;;;;;;3.35;2.13;;;11.80;65.60;;;;;;6115970;23;20347;-56
2021/12/13 02:18:28;;;;;;;5.55;2.50;;;11.80;65.60;;;;;;6123919;23;20053;-53
2021/12/13 02:21:06;;;;;;;3.60;2.28;;;11.80;65.60;;;;;;6114865;23;20010;-53
2021/12/13 02:23:36;;;;;;;4.00;2.85;;;11.80;65.70;;;;;;6116372;23;20017;-51
2021/12/13 02:26:03;;;;;;;5.10;2.20;;;11.70;65.60;;;;;;6115228;23;20006;-55
2021/12/13 02:28:33;;;;;;;3.58;2.47;;;11.70;65.70;;;;;;6114643;23;20006;-53
2021/12/13 02:31:08;;;;;;;3.20;2.00;;;11.70;65.70;;;;;;6114739;23;20435;-54
2021/12/13 02:33:55;;;;;;;2.50;2.10;;;11.70;65.60;;;;;;6114707;23;20010;-53
2021/12/13 02:36:30;;;;;;;3.45;2.42;;;11.70;65.70;;;;;;6115678;23;20006;-51
2021/12/13 02:39:00;;;;;;;3.28;2.25;;;11.70;65.60;;;;;;6119106;23;20278;-52
2021/12/13 02:41:31;;;;;;;4.03;2.22;;;11.70;65.70;;;;;;6113715;23;20012;-55
2021/12/13 02:44:04;;;;;;;3.58;2.75;;;11.70;66.30;;;;;;6124493;23;20017;-53
2021/12/13 02:46:30;;;;;;;8.75;4.15;;;11.70;65.70;;;;;;6123407;23;20013;-54
2021/12/13 02:49:01;;;;;;;4.80;3.03;;;11.70;65.60;;;;;;6114754;23;19998;-52
2021/12/13 02:51:31;;;;;;;5.25;3.20;;;11.60;65.50;;;;;;6125804;23;20287;-53
2021/12/13 02:54:19;;;;;;;4.00;2.92;;;11.70;65.60;;;;;;6115316;23;20052;-54
2021/12/13 02:57:11;;;;;;;4.22;2.75;;;11.60;65.50;;;;;;6115639;23;20002;-53
2021/12/13 02:59:43;;;;;;;4.00;2.97;;;11.60;65.50;;;;;;6108429;23;20002;-54
2021/12/13 03:02:21;;;;;;;4.70;3.20;;;11.60;65.50;;;;;;6112135;23;20009;-52
2021/12/13 03:04:48;;;;;;;4.88;3.45;;;11.60;65.50;;;;;;6125747;23;20005;-54
2021/12/13 03:07:19;;;;;;;4.97;3.53;;;11.60;65.50;;;;;;6115879;23;19998;-53
2021/12/13 03:09:49;;;;;;;6.03;3.13;;;11.60;65.50;;;;;;6124867;23;20018;-53
2021/12/13 03:12:18;;;;;;;4.47;3.50;;;11.50;65.50;;;;;;6115725;23;19998;-55
2021/12/13 03:14:49;;;;;;;5.13;3.33;;;11.50;65.50;;;;;;6115486;23;20427;-52
2021/12/13 03:17:19;;;;;;;5.70;3.53;;;11.50;65.50;;;;;;6124077;23;20369;-52
2021/12/13 03:19:54;;;;;;;4.82;3.72;;;11.50;65.50;;;;;;6115029;23;20005;-52
2021/12/13 03:23:07;;;;;;;6.88;4.15;;;11.50;65.50;;;;;;6115361;23;20006;-56
2021/12/13 03:25:57;;;;;;;4.93;3.80;;;11.50;65.40;;;;;;6114611;23;20006;-53
2021/12/13 03:28:26;;;;;;;5.95;4.03;;;11.50;65.40;;;;;;6113394;23;19998;-55
2021/12/13 03:31:24;;;;;;;6.82;4.07;;;11.50;65.30;;;;;;6115152;23;20005;-55
2021/12/13 03:34:04;;;;;;;5.40;3.97;;;11.50;65.30;;;;;;6116277;23;20423;-55
2021/12/13 03:36:45;;;;;;;6.57;4.03;;;11.50;65.40;;;;;;6112857;23;20431;-54
2021/12/13 03:39:16;;;;;;;5.20;4.22;;;11.40;65.30;;;;;;6113161;23;20010;-55
2021/12/13 03:41:46;;;;;;;8.63;4.50;;;11.40;65.30;;;;;;6123212;23;20002;-55
2021/12/13 03:44:25;;;;;;;6.13;3.95;;;11.40;65.30;;;;;;6125613;23;20005;-54
2021/12/13 03:46:55;;;;;;;5.20;4.10;;;11.40;65.30;;;;;;6121955;23;20301;-55
2021/12/13 03:49:25;;;;;;;6.47;4.75;;;11.40;65.30;;;;;;6113571;23;20281;-54
2021/12/13 03:51:56;;;;;;;6.60;4.57;;;11.40;65.30;;;;;;6112059;23;20009;-55
2021/12/13 03:54:26;;;;;;;5.93;4.32;;;11.40;65.30;;;;;;6114761;23;20427;-54
2021/12/13 03:56:55;;;;;;;9.13;4.07;;;11.40;65.30;;;;;;6115243;23;20002;-54
2021/12/13 03:59:27;;;;;;;6.75;4.57;;;11.40;65.30;;;;;;6112918;23;20002;-50
2021/12/13 04:02:00;;;;;;;5.13;3.90;;;11.40;65.20;;;;;;6122397;23;20005;-55
2021/12/13 04:04:55;;;;;;;7.55;4.72;;;11.40;65.20;;;;;;6125334;23;20002;-52
2021/12/13 04:07:47;;;;;;;5.45;4.20;;;11.40;65.20;;;;;;6118936;23;20010;-54
2021/12/13 04:10:18;;;;;;;6.88;4.57;;;11.40;65.20;;;;;;6126448;23;20010;-55
2021/12/13 04:12:49;;;;;;;8.77;4.80;;;11.40;65.20;;;;;;6116816;23;19998;-57
2021/12/13 04:15:26;;;;;;;6.63;4.78;;;11.40;65.20;;;;;;6117131;23;20002;-55
2021/12/13 04:18:12;;;;;;;5.82;4.22;;;11.30;65.10;;;;;;6115018;23;20010;-56
2021/12/13 04:20:41;;;;;;;7.55;4.90;;;11.30;65.10;;;;;;6094292;23;19998;-56
2021/12/13 04:23:15;;;;;;;10.40;4.03;;;11.30;65.20;;;;;;6116815;23;20002;-56
2021/12/13 04:25:45;;;;;;;5.85;4.28;;;11.30;65.20;;;;;;6125416;23;20006;-55
2021/12/13 04:28:21;;;;;;;11.70;4.30;;;11.30;65.20;;;;;;6116306;23;20327;-57
2021/12/13 04:30:49;;;;;;;6.30;4.60;;;11.30;65.20;;;;;;6114442;23;20002;-55
2021/12/13 04:33:28;;;;;;;7.18;4.43;;;11.30;65.20;;;;;;6116864;23;20002;-54
2021/12/13 04:35:59;;;;;;;6.15;3.97;;;11.30;65.20;;;;;;6126969;23;20006;-54
2021/12/13 04:38:35;;;;;;;6.32;4.18;;;11.30;65.30;;;;;;6126285;23;20006;-56
2021/12/13 04:41:01;;;;;;;4.70;3.75;;;11.30;65.30;;;;;;6123859;23;20002;-56
2021/12/13 04:43:28;;;;;;;6.00;4.28;;;11.30;65.40;;;;;;6113905;23;20002;-53
2021/12/13 04:45:59;;;;;;;6.90;3.97;;;11.30;65.40;;;;;;6115504;23;20010;-54
2021/12/13 04:48:34;;;;;;;4.53;3.78;;;11.30;65.40;;;;;;6111923;23;20013;-55
2021/12/13 04:51:05;;;;;;;5.30;3.80;;;11.30;65.50;;;;;;6126018;23;20328;-52
2021/12/13 04:53:45;;;;;;;5.68;4.25;;;11.30;65.50;;;;;;6116444;23;19998;-54
2021/12/13 04:56:19;;;;;;;4.97;3.65;;;11.30;65.60;;;;;;6127158;23;20316;-56
2021/12/13 04:58:47;;;;;;;;;;;11.20;65.50;;;;;;6123819;23;20002;-53
2021/12/13 05:01:15;;;;;;;4.78;3.42;;;11.30;66.40;;;;;;6114164;23;19905;-55
2021/12/13 05:03:46;;;;;;;5.43;3.60;;;11.30;65.30;;;;;;6115757;23;20427;-53
2021/12/13 05:06:16;;;;;;;7.90;3.58;;;11.30;65.30;;;;;;6117983;23;20021;-55
2021/12/13 05:08:49;;;;;;;4.97;3.72;;;11.20;65.30;;;;;;6116450;23;20014;-53
2021/12/13 05:11:16;;;;;;;4.00;3.17;;;11.20;65.40;;;;;;6115596;23;20002;-53
2021/12/13 05:13:52;;;;;;;3.90;2.95;;;11.20;65.40;;;;;;6116392;23;20005;-55
2021/12/13 05:16:36;;;;;;;5.47;2.53;;;11.20;65.50;;;;;;6120158;23;20439;-54
2021/12/13 05:19:05;;;;;;;3.60;2.70;;;11.20;65.50;;;;;;6114469;23;20006;-57
2021/12/13 05:21:40;;;;;;;3.55;2.70;;;11.20;65.60;;;;;;6113460;23;20006;-54
2021/12/13 05:24:19;;;;;;;2.55;2.13;;;11.20;65.60;;;;;;6125754;23;20013;-57
2021/12/13 05:26:59;;;;;;;3.55;2.38;;;11.20;65.70;;;;;;6125460;23;20006;-55
2021/12/13 05:29:35;;;;;;;6.15;2.50;;;11.20;65.60;;;;;;6116146;23;20013;-57
2021/12/13 05:32:27;;;;;;;5.10;2.55;;;11.20;65.60;;;;;;6124466;23;20014;-55
2021/12/13 05:35:04;;;;;;;4.13;2.40;;;11.20;65.70;;;;;;6109377;23;20449;-54
2021/12/13 05:37:42;;;;;;;4.15;2.40;;;11.20;65.70;;;;;;6126396;23;20002;-54
2021/12/13 05:40:15;;;;;;;3.03;2.15;;;11.20;65.70;;;;;;6115999;23;20010;-54
2021/12/13 05:43:09;;;;;;;3.60;2.55;;;11.20;65.70;;;;;;6125791;23;20006;-57
2021/12/13 05:45:41;;;;;;;3.77;2.43;;;11.10;65.70;;;;;;6108850;23;20014;-56
2021/12/13 05:48:22;;;;;;;15.75;8.35;;;11.20;65.70;;;;;;6113270;23;20412;-57
2021/12/13 05:50:57;;;;;;;20.60;10.98;;;11.20;65.70;;;;;;6125019;23;19998;-56
2021/12/13 05:53:28;;;;;;;7.25;4.95;;;11.10;65.80;;;;;;6127095;23;19998;-53
2021/12/13 05:56:08;;;;;;;5.15;3.65;;;11.10;65.70;;;;;;6115436;23;20006;-55
2021/12/13 05:58:58;;;;;;;5.07;3.30;;;11.10;65.80;;;;;;6125319;23;20002;-54
2021/12/13 06:01:28;;;;;;;4.57;2.70;;;11.10;65.90;;;;;;6105342;23;20002;-57
2021/12/13 06:04:22;;;;;;;4.43;3.15;;;11.10;65.90;;;;;;6113823;23;20002;-55
2021/12/13 06:06:54;;;;;;;3.40;2.85;;;11.10;65.90;;;;;;6074976;23;20030;-54
2021/12/13 06:09:44;;;;;;;65.53;25.90;;;11.10;65.90;;;;;;6112765;23;20017;-55
2021/12/13 06:12:16;;;;;;;20.50;10.85;;;11.10;66.00;;;;;;6124649;23;20002;-52
2021/12/13 06:14:43;;;;;;;9.50;5.28;;;11.10;65.90;;;;;;6125249;23;20009;-52
2021/12/13 06:17:31;;;;;;;6.03;4.45;;;11.10;66.00;;;;;;6112829;23;20006;-54
2021/12/13 06:20:08;;;;;;;10.98;4.07;;;11.10;66.00;;;;;;6122921;23;20343;-54
2021/12/13 06:22:35;;;;;;;5.60;4.28;;;11.10;66.00;;;;;;6116226;23;20006;-57
2021/12/13 06:25:09;;;;;;;6.30;4.13;;;11.10;65.90;;;;;;6114968;23;20002;-56
2021/12/13 06:28:02;;;;;;;5.88;4.07;;;11.20;66.00;;;;;;6123758;23;20033;-56
2021/12/13 06:30:35;;;;;;;6.25;4.82;;;11.10;65.90;;;;;;6110514;23;20006;-56
2021/12/13 06:33:13;;;;;;;6.32;4.25;;;11.20;65.90;;;;;;6113985;23;20013;-54
2021/12/13 06:36:00;;;;;;;6.97;4.32;;;11.10;65.90;;;;;;6116153;23;20428;-53
2021/12/13 06:38:38;;;;;;;6.03;4.63;;;11.10;65.90;;;;;;6113335;23;20006;-53
2021/12/13 06:41:15;;;;;;;6.10;4.40;;;11.20;65.90;;;;;;6123042;23;20009;-55
2021/12/13 06:44:07;;;;;;;6.28;4.57;;;11.10;65.80;;;;;;6124125;23;20462;-55
2021/12/13 06:46:44;;;;;;;5.72;4.65;;;11.20;65.90;;;;;;6090661;23;20025;-54
2021/12/13 06:49:26;;;;;;;6.80;4.78;;;11.10;65.80;;;;;;6122320;23;20317;-55
2021/12/13 06:52:04;;;;;;;6.95;4.97;;;11.10;65.80;;;;;;6112772;23;20040;-57
2021/12/13 06:54:33;;;;;;;10.20;4.97;;;11.20;65.80;;;;;;6114370;23;20024;-54
2021/12/13 06:57:02;;;;;;;6.47;5.20;;;11.10;65.80;;;;;;6110656;23;20009;-57
2021/12/13 06:59:32;;;;;;;8.10;4.95;;;11.10;65.80;;;;;;6110077;23;20006;-54
2021/12/13 07:02:23;;;;;;;7.47;5.10;;;11.10;65.80;;;;;;6112481;23;20016;-56
2021/12/13 07:04:54;;;;;;;6.15;4.18;;;11.10;65.90;;;;;;6102200;23;20009;-54
2021/12/13 07:07:28;;;;;;;7.20;4.82;;;11.20;65.90;;;;;;6113782;23;20009;-55
2021/12/13 07:10:00;;;;;;;6.20;4.82;;;11.20;65.80;;;;;;6124995;23;20196;-57
2021/12/13 07:12:28;;;;;;;10.07;5.13;;;11.20;65.80;;;;;;6125337;23;19998;-56
2021/12/13 07:14:55;;;;;;;9.35;5.13;;;11.10;65.80;;;;;;6115576;23;19998;-56
2021/12/13 07:17:28;;;;;;;8.60;5.57;;;11.20;65.90;;;;;;6113543;23;20002;-54
2021/12/13 07:19:58;;;;;;;7.28;4.60;;;11.20;65.80;;;;;;6123020;23;20419;-55
2021/12/13 07:22:29;;;;;;;7.68;5.35;;;11.20;65.80;;;;;;6123647;23;20424;-54
2021/12/13 07:25:04;;;;;;;7.30;4.85;;;11.20;65.80;;;;;;6115673;23;20335;-57
2021/12/13 07:27:34;;;;;;;31.02;13.70;;;11.10;65.70;;;;;;6115103;23;20192;-55
2021/12/13 07:30:09;;;;;;;21.17;10.32;;;11.10;65.70;;;;;;6113619;23;19998;-55
2021/12/13 07:32:52;;;;;;;8.98;5.75;;;11.20;65.80;;;;;;6113606;23;20012;-57
2021/12/13 07:35:30;;;;;;;8.40;5.28;;;11.20;65.80;;;;;;6125210;23;20009;-55
2021/12/13 07:38:00;;;;;;;6.63;4.72;;;11.10;65.70;;;;;;6122519;23;20009;-57
2021/12/13 07:40:32;;;;;;;7.15;4.72;;;11.20;65.70;;;;;;6114800;23;20008;-54
2021/12/13 07:43:05;;;;;;;6.43;4.82;;;11.20;65.70;;;;;;6114914;23;20009;-54
2021/12/13 07:45:40;;;;;;;7.95;4.88;;;11.10;65.70;;;;;;6114820;23;20006;-54
2021/12/13 07:48:20;;;;;;;7.07;4.50;;;11.20;65.80;;;;;;6122856;23;20450;-55
2021/12/13 07:51:25;;;;;;;7.65;4.97;;;11.10;65.70;;;;;;6114947;23;20017;-54
2021/12/13 07:53:57;;;;;;;7.03;5.03;;;11.20;65.70;;;;;;6108552;23;20029;-55
2021/12/13 07:56:49;;;;;;;8.68;6.03;;;11.20;65.70;;;;;;6112370;23;20006;-57
2021/12/13 07:59:37;;;;;;;8.60;5.40;;;11.20;65.70;;;;;;6121644;23;19998;-55
2021/12/13 08:02:09;;;;;;;8.52;5.68;;;11.10;65.60;;;;;;6111294;23;20002;-57
2021/12/13 08:04:41;;;;;;;7.40;6.05;;;11.10;65.60;;;;;;6112480;23;20006;-55
2021/12/13 08:07:19;;;;;;;8.20;5.85;;;11.20;65.60;;;;;;6112386;23;20450;-55
2021/12/13 08:10:13;;;;;;;8.15;5.03;;;11.10;65.60;;;;;;6110591;23;20753;-53
2021/12/13 08:12:43;;;;;;;12.93;5.70;;;11.20;65.70;;;;;;6108210;23;20009;-54
2021/12/13 08:15:15;;;;;;;7.35;5.57;;;11.20;65.70;;;;;;6114049;23;20411;-53
2021/12/13 08:17:48;;;;;;;7.57;5.47;;;11.20;65.80;;;;;;6112018;23;20029;-55
2021/12/13 08:20:22;;;;;;;8.82;6.10;;;11.20;65.80;;;;;;6107056;23;20045;-56
2021/12/13 08:22:50;;;;;;;7.95;5.60;;;11.10;65.70;;;;;;6108377;23;20273;-57
2021/12/13 08:25:21;;;;;;;10.50;5.22;;;11.20;65.90;;;;;;6108575;23;19998;-55
2021/12/13 08:27:57;;;;;;;10.20;5.63;;;11.20;65.90;;;;;;6123008;23;20014;-52
2021/12/13 08:30:34;;;;;;;9.25;5.82;;;11.20;65.90;;;;;;6111116;23;19998;-57
2021/12/13 08:33:15;;;;;;;8.38;5.25;;;11.20;65.90;;;;;;6121156;23;20002;-54
2021/12/13 08:36:02;;;;;;;7.95;5.03;;;11.20;65.90;;;;;;6113184;23;20002;-57
2021/12/13 08:39:08;;;;;;;11.13;5.50;;;11.20;65.90;;;;;;6113572;23;20006;-55
2021/12/13 08:41:42;;;;;;;8.00;5.70;;;11.20;66.00;;;;;;6111797;23;20002;-57
2021/12/13 08:44:11;;;;;;;9.05;5.55;;;11.20;65.90;;;;;;6122816;23;20315;-56
2021/12/13 08:46:42;;;;;;;8.48;5.35;;;11.20;66.00;;;;;;6111661;23;20033;-56
2021/12/13 08:49:21;;;;;;;7.05;5.20;;;11.20;66.00;;;;;;6112323;23;20005;-54
2021/12/13 08:51:56;;;;;;;8.70;5.88;;;11.20;66.00;;;;;;6112304;23;20013;-55
2021/12/13 08:54:33;;;;;;;7.95;6.07;;;11.20;66.10;;;;;;6121780;23;19994;-57
2021/12/13 08:57:00;;;;;;;7.07;5.10;;;11.30;66.20;;;;;;6123872;23;20351;-55
2021/12/13 08:59:27;;;;;;;11.38;5.35;;;11.30;66.20;;;;;;6113331;23;20003;-55
2021/12/13 09:02:01;;;;;;;7.53;5.40;;;11.30;66.20;;;;;;6113842;23;20412;-55
2021/12/13 09:04:33;;;;;;;7.70;5.18;;;11.40;66.30;;;;;;6124676;23;20009;-53
2021/12/13 09:07:03;;;;;;;7.45;5.30;;;11.30;66.30;;;;;;6119538;23;20002;-56
2021/12/13 09:09:29;;;;;;;7.68;5.43;;;11.40;66.40;;;;;;6114880;23;20002;-56
2021/12/13 09:12:07;;;;;;;8.00;5.82;;;11.40;66.30;;;;;;6114524;23;20010;-57
2021/12/13 09:14:39;;;;;;;7.85;5.57;;;11.50;66.30;;;;;;6106855;23;20014;-57
2021/12/13 09:17:25;;;;;;;8.32;5.25;;;11.50;66.30;;;;;;6109367;23;20486;-57
2021/12/13 09:20:13;;;;;;;8.18;5.28;;;11.50;66.20;;;;;;6123132;23;20005;-56
2021/12/13 09:22:44;;;;;;;7.95;5.30;;;11.50;66.20;;;;;;6109263;23;20016;-54
2021/12/13 09:25:29;;;;;;;8.68;5.43;;;11.50;66.00;;;;;;6122486;23;20002;-53
2021/12/13 09:28:04;;;;;;;9.05;5.50;;;11.50;66.00;;;;;;6113471;23;20439;-53
2021/12/13 09:30:42;;;;;;;7.95;5.72;;;11.60;66.10;;;;;;6113014;23;20002;-55
2021/12/13 09:33:23;;;;;;;8.05;5.25;;;11.60;66.10;;;;;;6114505;23;19998;-57
2021/12/13 09:36:01;;;;;;;6.95;4.82;;;11.60;66.10;;;;;;6115838;23;20006;-57
2021/12/13 09:38:42;;;;;;;7.43;5.40;;;11.60;66.10;;;;;;6124641;23;20308;-56
2021/12/13 09:41:27;;;;;;;8.27;4.80;;;11.70;66.20;;;;;;6113199;23;20435;-56
2021/12/13 09:44:14;;;;;;;9.07;5.40;;;11.70;66.20;;;;;;6114769;23;20327;-54
2021/12/13 09:46:52;;;;;;;8.13;4.78;;;11.70;66.10;;;;;;6114812;23;20339;-57
2021/12/13 09:49:33;;;;;;;7.45;4.40;;;11.70;66.10;;;;;;6125229;23;19994;-55
2021/12/13 09:52:30;;;;;;;8.00;4.85;;;11.80;66.20;;;;;;6115748;23;20334;-55
2021/12/13 09:55:30;;;;;;;7.43;4.72;;;11.80;66.20;;;;;;6122638;23;20028;-55
2021/12/13 09:58:15;;;;;;;6.78;4.60;;;11.90;66.20;;;;;;6121978;23;20002;-54
2021/12/13 10:00:42;;;;;;;5.63;4.10;;;11.90;66.20;;;;;;6112079;23;20161;-53
2021/12/13 10:03:17;;;;;;;7.63;5.18;;;11.90;66.20;;;;;;6113359;23;20002;-54
2021/12/13 10:05:49;;;;;;;8.68;4.65;;;12.00;66.30;;;;;;6111995;23;20329;-54
2021/12/13 10:08:24;;;;;;;5.75;4.35;;;12.00;66.20;;;;;;6112850;23;20029;-57
2021/12/13 10:11:33;;;;;;;11.52;4.60;;;12.00;66.20;;;;;;6117267;23;20006;-56
2021/12/13 10:14:00;;;;;;;11.02;4.45;;;12.00;66.10;;;;;;6123832;23;19998;-55
2021/12/13 10:16:33;;;;;;;30.25;11.25;;;12.10;66.10;;;;;;6102964;23;20013;-57
2021/12/13 10:19:04;;;;;;;27.42;13.80;;;12.20;66.10;;;;;;6123503;23;20006;-56
2021/12/13 10:21:37;;;;;;;11.25;7.03;;;12.20;66.00;;;;;;6123917;23;20002;-53
2021/12/13 10:24:27;;;;;;;9.80;5.40;;;12.20;66.00;;;;;;6114457;23;20009;-54
2021/12/13 10:26:56;;;;;;;6.40;4.15;;;12.20;65.90;;;;;;6114259;23;20010;-57
2021/12/13 10:29:24;;;;;;;7.05;4.82;;;12.30;65.90;;;;;;6112255;23;20478;-56
2021/12/13 10:31:59;;;;;;;8.98;4.63;;;12.30;65.90;;;;;;6112420;23;20443;-57
2021/12/13 10:34:30;;;;;;;5.93;4.07;;;12.40;65.80;;;;;;6123905;23;19998;-57
2021/12/13 10:37:24;;;;;;;9.32;4.40;;;12.40;65.90;;;;;;6110998;23;20006;-54
2021/12/13 10:39:54;;;;;;;5.55;3.97;;;12.40;65.70;;;;;;6124566;23;20343;-57
2021/12/13 10:42:27;;;;;;;7.65;4.55;;;12.40;65.70;;;;;;6114169;23;20013;-55
2021/12/13 10:44:54;;;;;;;6.07;4.03;;;12.50;65.70;;;;;;6114776;23;20029;-53
2021/12/13 10:47:29;;;;;;;7.60;4.40;;;12.50;65.60;;;;;;6109321;23;20343;-56
2021/12/13 10:49:56;;;;;;;6.68;4.60;;;12.50;65.50;;;;;;6110341;23;20010;-54
2021/12/13 10:52:36;;;;;;;7.88;4.35;;;12.50;65.50;;;;;;6109407;23;20010;-53
2021/12/13 10:55:17;;;;;;;8.52;4.53;;;12.60;65.30;;;;;;6122711;23;20017;-54
2021/12/13 10:57:50;;;;;;;6.82;4.43;;;12.60;65.20;;;;;;6119178;23;20017;-54
2021/12/13 11:00:25;;;;;;;7.30;4.53;;;12.60;65.20;;;;;;6124378;23;20005;-52
2021/12/13 11:03:06;;;;;;;6.63;4.28;;;12.60;65.10;;;;;;6122823;23;19994;-54
2021/12/13 11:05:33;;;;;;;5.47;4.07;;;12.70;65.10;;;;;;6123812;23;20006;-54
2021/12/13 11:08:01;;;;;;;41.55;21.30;;;12.70;65.10;;;;;;6113972;23;20018;-54
2021/12/13 11:10:35;;;;;;;93.70;42.95;;;12.70;65.00;;;;;;6114932;23;20021;-54
2021/12/13 11:13:03;;;;;;;22.83;12.48;;;12.70;64.90;;;;;;6112835;23;20002;-51
2021/12/13 11:15:36;;;;;;;10.65;5.78;;;12.80;65.00;;;;;;6112773;23;19998;-57
2021/12/13 11:18:07;;;;;;;7.17;4.20;;;12.80;64.90;;;;;;6105570;23;20017;-57
2021/12/13 11:20:38;;;;;;;5.70;3.53;;;12.80;64.80;;;;;;6107484;23;20173;-54
2021/12/13 11:23:07;;;;;;;9.70;3.83;;;12.80;64.80;;;;;;6119168;23;20009;-55
2021/12/13 11:25:39;;;;;;;9.10;3.88;;;12.80;64.80;;;;;;6109746;23;20011;-55
2021/12/13 11:28:07;;;;;;;5.55;3.80;;;12.80;64.80;;;;;;6119300;23;20424;-54
2021/12/13 11:30:35;;;;;;;7.25;3.40;;;12.80;64.80;;;;;;6114324;23;20006;-56
2021/12/13 11:33:44;;;;;;;6.40;3.08;;;12.90;64.80;;;;;;6111902;23;20006;-55
2021/12/13 11:36:10;;;;;;;5.25;3.60;;;12.90;64.80;;;;;;6114444;23;20009;-52
2021/12/13 11:39:20;;;;;;;5.68;3.40;;;12.90;64.90;;;;;;6112047;23;20013;-55
2021/12/13 11:42:23;;;;;;;5.40;3.67;;;13.00;64.70;;;;;;6124472;23;20192;-54
2021/12/13 11:45:17;;;;;;;5.07;3.10;;;13.00;64.70;;;;;;6114585;23;20454;-56
2021/12/13 11:48:09;;;;;;;4.60;3.05;;;13.00;64.70;;;;;;6121321;23;20351;-53
2021/12/13 11:50:56;;;;;;;10.63;3.17;;;13.00;64.90;;;;;;6091409;23;20013;-55
2021/12/13 11:53:41;;;;;;;6.53;3.30;;;13.10;64.80;;;;;;6124548;23;20009;-56
2021/12/13 11:56:40;;;;;;;5.53;3.53;;;13.10;64.80;;;;;;6112158;23;20006;-55
2021/12/13 11:59:50;;;;;;;5.95;3.20;;;13.10;64.60;;;;;;6124262;23;20005;-54
2021/12/13 12:02:26;;;;;;;5.80;3.45;;;13.20;64.70;;;;;;6111361;23;20002;-57
2021/12/13 12:05:11;;;;;;;6.35;3.08;;;13.30;64.50;;;;;;6123902;23;20002;-54
2021/12/13 12:08:01;;;;;;;5.65;3.10;;;13.30;64.40;;;;;;6113165;23;20428;-56
2021/12/13 12:11:11;;;;;;;1.98;1.00;;;13.30;64.20;;;;;;6112379;23;20013;-54
2021/12/13 12:14:06;;;;;;;0.85;0.68;;;13.30;63.40;;;;;;6123345;23;20010;-56
2021/12/13 12:16:41;;;;;;;3.55;1.00;;;13.30;62.50;;;;;;6087468;23;20006;-55
2021/12/13 12:19:14;;;;;;;1.70;0.47;;;13.30;62.20;;;;;;6112867;23;20349;-55
2021/12/13 12:21:55;;;;;;;1.40;0.63;;;13.40;62.00;;;;;;6124245;23;20009;-55
2021/12/13 12:24:52;;;;;;;0.73;0.35;;;13.40;61.40;;;;;;6123425;23;20013;-57
2021/12/13 12:27:24;;;;;;;5.35;0.80;;;13.40;61.20;;;;;;6106721;23;20009;-54
2021/12/13 12:30:00;;;;;;;1.75;1.00;;;13.40;60.30;;;;;;6124554;23;19998;-56
2021/12/13 12:32:34;;;;;;;1.75;0.95;;;13.40;59.80;;;;;;6125328;23;20419;-55
2021/12/13 12:35:14;;;;;;;2.78;0.60;;;13.40;59.70;;;;;;6115720;23;20273;-57
2021/12/13 12:38:03;;;;;;;3.53;0.55;;;13.40;59.50;;;;;;6124032;23;20013;-53
2021/12/13 12:40:45;;;;;;;0.90;0.60;;;13.40;59.50;;;;;;6125370;23;19998;-57
2021/12/13 12:43:16;;;;;;;1.35;0.50;;;13.40;59.50;;;;;;6126329;23;20009;-54
2021/12/13 12:45:44;;;;;;;0.60;0.60;;;13.40;59.40;;;;;;6125535;23;20770;-52
2021/12/13 12:48:20;;;;;;;0.90;0.50;;;13.40;59.60;;;;;;6115384;23;20002;-53
2021/12/13 12:51:08;;;;;;;1.05;0.65;;;13.40;59.30;;;;;;6125904;23;20017;-54
2021/12/13 12:53:37;;;;;;;2.08;0.65;;;13.40;59.20;;;;;;6116186;23;20257;-54
2021/12/13 12:56:29;;;;;;;0.40;0.40;;;13.40;59.10;;;;;;6116073;23;20505;-54
2021/12/13 12:59:04;;;;;;;0.52;0.45;;;13.40;58.70;;;;;;6116182;23;20033;-54
2021/12/13 13:01:35;;;;;;;0.80;0.40;;;13.40;58.80;;;;;;6114764;23;20553;-55
2021/12/13 13:04:16;;;;;;;0.70;0.60;;;13.40;58.90;;;;;;6126276;23;20327;-56
2021/12/13 13:07:02;;;;;;;1.48;0.55;;;13.40;58.70;;;;;;6114983;23;20293;-55
2021/12/13 13:09:47;;;;;;;2.17;0.50;;;13.40;58.80;;;;;;6114001;23;20018;-54
2021/12/13 13:12:22;;;;;;;2.35;0.80;;;13.40;58.80;;;;;;6115746;23;20017;-56
2021/12/13 13:14:52;;;;;;;0.70;0.30;;;13.40;59.40;;;;;;6125037;23;20510;-56
2021/12/13 13:17:24;;;;;;;0.52;0.52;;;13.40;58.80;;;;;;6113862;23;20017;-55
2021/12/13 13:19:50;;;;;;;1.27;0.40;;;13.50;58.80;;;;;;6125607;23;20474;-56
2021/12/13 13:22:19;;;;;;;2.75;0.85;;;13.40;58.80;;;;;;6116225;23;20002;-55
2021/12/13 13:24:53;;;;;;;1.25;0.68;;;13.40;58.60;;;;;;6115920;23;20017;-53
2021/12/13 13:27:24;;;;;;;2.75;0.68;;;13.40;58.60;;;;;;6114897;23;20010;-55
2021/12/13 13:29:51;;;;;;;2.85;0.57;;;13.40;58.70;;;;;;6115961;23;20002;-55
2021/12/13 13:32:17;;;;;;;2.40;0.75;;;13.40;58.70;;;;;;6112992;23;20001;-54
2021/12/13 13:34:48;;;;;;;1.13;0.60;;;13.40;58.70;;;;;;6115394;23;19994;-57
2021/12/13 13:37:20;;;;;;;0.88;0.60;;;13.40;58.60;;;;;;6115446;23;20002;-57
2021/12/13 13:39:50;;;;;;;0.90;0.50;;;13.40;58.60;;;;;;6115687;23;20340;-55
2021/12/13 13:42:19;;;;;;;1.08;0.60;;;13.40;58.70;;;;;;6115465;23;20432;-54